sensor_id;sensor_type;location;lat;lon;timestamp;pressure;altitude;pressure_sealevel;temperature;humidity
40788;BME280;26497;52.494;7.546;2023-07-13T00:00:30;100701.69;;;18.92;66.80
40788;BME280;26497;52.494;7.546;2023-07-13T00:02:57;100690.41;;;18.83;67.06
40788;BME280;26497;52.494;7.546;2023-07-13T00:05:24;100694.03;;;18.81;67.34
40788;BME280;26497;52.494;7.546;2023-07-13T00:07:53;100689.69;;;18.78;67.55
40788;BME280;26497;52.494;7.546;2023-07-13T00:10:22;100688.53;;;18.85;67.33
40788;BME280;26497;52.494;7.546;2023-07-13T00:12:49;100684.94;;;18.86;67.12
40788;BME280;26497;52.494;7.546;2023-07-13T00:15:25;100689.56;;;18.81;67.13
40788;BME280;26497;52.494;7.546;2023-07-13T00:17:54;100692.34;;;18.78;66.74
40788;BME280;26497;52.494;7.546;2023-07-13T00:20:23;100689.47;;;18.84;66.80
40788;BME280;26497;52.494;7.546;2023-07-13T00:22:51;100691.16;;;18.87;66.52
40788;BME280;26497;52.494;7.546;2023-07-13T00:25:21;100696.22;;;18.96;66.20
40788;BME280;26497;52.494;7.546;2023-07-13T00:27:51;100700.69;;;18.94;66.25
40788;BME280;26497;52.494;7.546;2023-07-13T00:30:18;100693.69;;;18.92;66.09
40788;BME280;26497;52.494;7.546;2023-07-13T00:32:45;100707.59;;;19.01;66.00
40788;BME280;26497;52.494;7.546;2023-07-13T00:35:14;100701.72;;;18.90;66.35
40788;BME280;26497;52.494;7.546;2023-07-13T00:37:41;100698.09;;;18.93;66.51
40788;BME280;26497;52.494;7.546;2023-07-13T00:40:11;100698.13;;;18.91;66.39
40788;BME280;26497;52.494;7.546;2023-07-13T00:42:41;100701.59;;;18.95;66.27
40788;BME280;26497;52.494;7.546;2023-07-13T00:48:32;100708.78;;;18.93;66.47
40788;BME280;26497;52.494;7.546;2023-07-13T00:51:01;100704.47;;;18.89;66.55
40788;BME280;26497;52.494;7.546;2023-07-13T00:53:30;100708.69;;;18.96;66.55
40788;BME280;26497;52.494;7.546;2023-07-13T00:55:59;100713.41;;;18.88;66.75
40788;BME280;26497;52.494;7.546;2023-07-13T00:58:29;100714.16;;;18.91;66.46
40788;BME280;26497;52.494;7.546;2023-07-13T01:00:56;100714.47;;;18.82;66.84
40788;BME280;26497;52.494;7.546;2023-07-13T01:03:23;100713.72;;;18.78;67.30
40788;BME280;26497;52.494;7.546;2023-07-13T01:05:51;100715.88;;;18.94;67.27
40788;BME280;26497;52.494;7.546;2023-07-13T01:08:20;100715.38;;;19.09;67.09
40788;BME280;26497;52.494;7.546;2023-07-13T01:10:54;100710.53;;;19.21;66.66
40788;BME280;26497;52.494;7.546;2023-07-13T01:13:22;100707.06;;;19.17;66.19
40788;BME280;26497;52.494;7.546;2023-07-13T01:15:53;100712.09;;;19.01;66.79
40788;BME280;26497;52.494;7.546;2023-07-13T01:18:23;100713.53;;;18.84;66.99
40788;BME280;26497;52.494;7.546;2023-07-13T01:20:54;100705.59;;;18.81;67.28
40788;BME280;26497;52.494;7.546;2023-07-13T01:23:23;100712.91;;;18.76;67.13
40788;BME280;26497;52.494;7.546;2023-07-13T01:25:50;100703.38;;;18.67;67.33
40788;BME280;26497;52.494;7.546;2023-07-13T01:28:18;100707.88;;;18.67;67.16
40788;BME280;26497;52.494;7.546;2023-07-13T01:30:46;100702.84;;;18.57;67.57
40788;BME280;26497;52.494;7.546;2023-07-13T01:33:15;100710.94;;;18.54;67.71
40788;BME280;26497;52.494;7.546;2023-07-13T01:35:45;100702.28;;;18.48;67.98
40788;BME280;26497;52.494;7.546;2023-07-13T01:38:16;100694.41;;;18.43;68.35
40788;BME280;26497;52.494;7.546;2023-07-13T01:40:44;100696.16;;;18.44;68.53
40788;BME280;26497;52.494;7.546;2023-07-13T01:43:12;100696.44;;;18.35;68.84
40788;BME280;26497;52.494;7.546;2023-07-13T01:45:39;100699.28;;;18.30;69.23
40788;BME280;26497;52.494;7.546;2023-07-13T01:48:06;100695.00;;;18.24;69.88
40788;BME280;26497;52.494;7.546;2023-07-13T01:50:33;100703.72;;;18.30;69.91
40788;BME280;26497;52.494;7.546;2023-07-13T01:53:01;100696.53;;;18.32;69.67
40788;BME280;26497;52.494;7.546;2023-07-13T01:55:30;100699.38;;;18.27;69.96
40788;BME280;26497;52.494;7.546;2023-07-13T01:57:57;100707.47;;;18.24;70.66
40788;BME280;26497;52.494;7.546;2023-07-13T02:00:24;100708.88;;;18.36;70.64
40788;BME280;26497;52.494;7.546;2023-07-13T02:02:51;100704.22;;;18.42;70.52
40788;BME280;26497;52.494;7.546;2023-07-13T02:05:19;100704.03;;;18.49;70.51
40788;BME280;26497;52.494;7.546;2023-07-13T02:07:46;100705.81;;;18.48;70.72
40788;BME280;26497;52.494;7.546;2023-07-13T02:10:13;100704.84;;;18.51;70.72
40788;BME280;26497;52.494;7.546;2023-07-13T02:12:41;100693.19;;;18.53;70.72
40788;BME280;26497;52.494;7.546;2023-07-13T02:15:10;100702.72;;;18.61;70.62
40788;BME280;26497;52.494;7.546;2023-07-13T02:17:37;100698.16;;;18.64;70.69
40788;BME280;26497;52.494;7.546;2023-07-13T02:20:05;100710.44;;;18.70;70.89
40788;BME280;26497;52.494;7.546;2023-07-13T02:22:33;100708.31;;;18.80;70.30
40788;BME280;26497;52.494;7.546;2023-07-13T02:25:01;100710.03;;;18.82;70.27
40788;BME280;26497;52.494;7.546;2023-07-13T02:27:28;100714.13;;;18.93;70.00
40788;BME280;26497;52.494;7.546;2023-07-13T02:29:56;100711.78;;;18.83;70.29
40788;BME280;26497;52.494;7.546;2023-07-13T02:32:23;100716.09;;;18.88;70.33
40788;BME280;26497;52.494;7.546;2023-07-13T02:34:51;100716.84;;;18.91;70.14
40788;BME280;26497;52.494;7.546;2023-07-13T02:37:19;100714.34;;;18.86;70.30
40788;BME280;26497;52.494;7.546;2023-07-13T02:39:47;100707.97;;;18.91;70.48
40788;BME280;26497;52.494;7.546;2023-07-13T02:42:14;100708.69;;;18.96;70.31
40788;BME280;26497;52.494;7.546;2023-07-13T02:44:41;100705.88;;;19.00;70.08
40788;BME280;26497;52.494;7.546;2023-07-13T02:47:09;100712.31;;;18.93;70.33
40788;BME280;26497;52.494;7.546;2023-07-13T02:49:36;100718.38;;;19.00;69.94
40788;BME280;26497;52.494;7.546;2023-07-13T02:52:05;100713.94;;;18.99;70.00
40788;BME280;26497;52.494;7.546;2023-07-13T02:54:32;100715.97;;;19.18;69.61
40788;BME280;26497;52.494;7.546;2023-07-13T02:56:59;100720.41;;;19.19;69.22
40788;BME280;26497;52.494;7.546;2023-07-13T02:59:26;100703.66;;;19.37;68.63
40788;BME280;26497;52.494;7.546;2023-07-13T03:01:53;100719.94;;;19.31;68.58
40788;BME280;26497;52.494;7.546;2023-07-13T03:04:21;100705.75;;;19.29;68.39
40788;BME280;26497;52.494;7.546;2023-07-13T03:06:48;100705.41;;;19.14;68.75
40788;BME280;26497;52.494;7.546;2023-07-13T03:09:15;100707.59;;;19.27;68.64
40788;BME280;26497;52.494;7.546;2023-07-13T03:11:42;100708.19;;;19.35;68.33
40788;BME280;26497;52.494;7.546;2023-07-13T03:14:09;100708.78;;;19.43;68.04
40788;BME280;26497;52.494;7.546;2023-07-13T03:16:36;100716.88;;;19.42;67.56
40788;BME280;26497;52.494;7.546;2023-07-13T03:19:03;100709.69;;;19.44;67.68
40788;BME280;26497;52.494;7.546;2023-07-13T03:21:31;100721.81;;;19.53;67.36
40788;BME280;26497;52.494;7.546;2023-07-13T03:23:58;100717.75;;;19.42;67.67
40788;BME280;26497;52.494;7.546;2023-07-13T03:26:25;100715.66;;;19.51;67.45
40788;BME280;26497;52.494;7.546;2023-07-13T03:28:52;100718.50;;;19.46;67.47
40788;BME280;26497;52.494;7.546;2023-07-13T03:31:24;100723.53;;;19.30;67.96
40788;BME280;26497;52.494;7.546;2023-07-13T03:33:51;100727.72;;;19.37;67.66
40788;BME280;26497;52.494;7.546;2023-07-13T03:36:22;100734.44;;;19.49;67.39
40788;BME280;26497;52.494;7.546;2023-07-13T03:38:53;100730.19;;;19.43;67.33
40788;BME280;26497;52.494;7.546;2023-07-13T03:41:21;100728.88;;;19.30;67.65
40788;BME280;26497;52.494;7.546;2023-07-13T03:43:49;100729.34;;;19.18;68.00
40788;BME280;26497;52.494;7.546;2023-07-13T03:46:17;100740.13;;;19.14;68.17
40788;BME280;26497;52.494;7.546;2023-07-13T03:48:46;100743.75;;;19.13;68.27
40788;BME280;26497;52.494;7.546;2023-07-13T03:51:15;100741.22;;;19.09;68.31
40788;BME280;26497;52.494;7.546;2023-07-13T03:53:45;100742.09;;;19.09;68.19
40788;BME280;26497;52.494;7.546;2023-07-13T03:56:14;100739.84;;;18.97;68.69
40788;BME280;26497;52.494;7.546;2023-07-13T03:58:43;100737.69;;;19.08;68.37
40788;BME280;26497;52.494;7.546;2023-07-13T04:01:12;100744.91;;;19.05;68.40
40788;BME280;26497;52.494;7.546;2023-07-13T04:03:40;100739.53;;;19.06;68.33
40788;BME280;26497;52.494;7.546;2023-07-13T04:06:15;100747.25;;;19.15;68.10
40788;BME280;26497;52.494;7.546;2023-07-13T04:08:48;100749.09;;;19.13;68.30
40788;BME280;26497;52.494;7.546;2023-07-13T04:11:18;100744.66;;;19.12;68.55
40788;BME280;26497;52.494;7.546;2023-07-13T04:13:46;100757.94;;;19.15;68.62
40788;BME280;26497;52.494;7.546;2023-07-13T04:16:14;100754.69;;;19.31;68.01
40788;BME280;26497;52.494;7.546;2023-07-13T04:18:42;100750.25;;;19.30;67.71
40788;BME280;26497;52.494;7.546;2023-07-13T04:21:09;100750.81;;;19.40;67.38
40788;BME280;26497;52.494;7.546;2023-07-13T04:23:37;100747.53;;;19.57;66.81
40788;BME280;26497;52.494;7.546;2023-07-13T04:26:05;100748.88;;;19.94;65.99
40788;BME280;26497;52.494;7.546;2023-07-13T04:28:34;100752.03;;;20.28;64.42
40788;BME280;26497;52.494;7.546;2023-07-13T04:31:01;100757.78;;;20.41;63.03
40788;BME280;26497;52.494;7.546;2023-07-13T04:33:29;100758.34;;;20.49;62.30
40788;BME280;26497;52.494;7.546;2023-07-13T04:35:56;100759.88;;;20.55;62.00
40788;BME280;26497;52.494;7.546;2023-07-13T04:38:27;100763.16;;;20.61;62.01
40788;BME280;26497;52.494;7.546;2023-07-13T04:40:56;100760.25;;;20.68;61.46
40788;BME280;26497;52.494;7.546;2023-07-13T04:43:23;100763.63;;;20.51;61.87
40788;BME280;26497;52.494;7.546;2023-07-13T04:45:53;100761.03;;;20.49;62.24
40788;BME280;26497;52.494;7.546;2023-07-13T04:48:21;100763.94;;;20.43;62.64
40788;BME280;26497;52.494;7.546;2023-07-13T04:50:54;100765.94;;;20.82;61.85
40788;BME280;26497;52.494;7.546;2023-07-13T04:53:22;100759.16;;;21.37;60.94
40788;BME280;26497;52.494;7.546;2023-07-13T04:55:50;100752.06;;;21.95;58.10
40788;BME280;26497;52.494;7.546;2023-07-13T04:58:17;100755.06;;;22.83;54.29
40788;BME280;26497;52.494;7.546;2023-07-13T05:00:44;100753.56;;;22.95;52.61
40788;BME280;26497;52.494;7.546;2023-07-13T05:03:12;100767.09;;;22.93;52.88
40788;BME280;26497;52.494;7.546;2023-07-13T05:05:38;100764.53;;;22.73;53.42
40788;BME280;26497;52.494;7.546;2023-07-13T05:08:05;100774.31;;;22.37;54.71
40788;BME280;26497;52.494;7.546;2023-07-13T05:10:33;100774.25;;;22.19;55.48
40788;BME280;26497;52.494;7.546;2023-07-13T05:13:00;100770.69;;;22.00;56.13
40788;BME280;26497;52.494;7.546;2023-07-13T05:15:27;100773.00;;;22.07;56.59
40788;BME280;26497;52.494;7.546;2023-07-13T05:17:54;100766.63;;;22.48;55.43
40788;BME280;26497;52.494;7.546;2023-07-13T05:20:22;100774.06;;;22.97;53.71
40788;BME280;26497;52.494;7.546;2023-07-13T05:22:49;100779.25;;;24.05;51.46
40788;BME280;26497;52.494;7.546;2023-07-13T05:25:17;100780.56;;;25.39;46.64
40788;BME280;26497;52.494;7.546;2023-07-13T05:27:44;100781.09;;;25.89;45.01
40788;BME280;26497;52.494;7.546;2023-07-13T05:30:13;100780.81;;;25.65;45.14
40788;BME280;26497;52.494;7.546;2023-07-13T05:32:41;100786.06;;;25.07;46.48
40788;BME280;26497;52.494;7.546;2023-07-13T05:35:08;100788.28;;;24.52;47.63
40788;BME280;26497;52.494;7.546;2023-07-13T05:37:37;100782.06;;;23.85;49.73
40788;BME280;26497;52.494;7.546;2023-07-13T05:40:06;100792.72;;;24.05;50.19
40788;BME280;26497;52.494;7.546;2023-07-13T05:42:33;100787.16;;;23.74;50.29
40788;BME280;26497;52.494;7.546;2023-07-13T05:45:00;100788.53;;;23.12;51.83
40788;BME280;26497;52.494;7.546;2023-07-13T05:47:27;100786.56;;;23.16;52.90
40788;BME280;26497;52.494;7.546;2023-07-13T05:49:54;100782.38;;;23.28;52.24
40788;BME280;26497;52.494;7.546;2023-07-13T05:52:21;100785.41;;;23.73;52.21
40788;BME280;26497;52.494;7.546;2023-07-13T05:54:49;100781.75;;;25.18;47.64
40788;BME280;26497;52.494;7.546;2023-07-13T05:57:16;100785.03;;;26.12;46.12
40788;BME280;26497;52.494;7.546;2023-07-13T05:59:43;100786.84;;;26.83;43.16
40788;BME280;26497;52.494;7.546;2023-07-13T06:02:10;100780.38;;;27.51;41.37
40788;BME280;26497;52.494;7.546;2023-07-13T06:04:37;100795.06;;;28.25;39.86
40788;BME280;26497;52.494;7.546;2023-07-13T06:07:05;100795.19;;;28.85;38.74
40788;BME280;26497;52.494;7.546;2023-07-13T06:09:31;100798.38;;;29.14;37.47
40788;BME280;26497;52.494;7.546;2023-07-13T06:12:00;100797.34;;;29.04;38.00
40788;BME280;26497;52.494;7.546;2023-07-13T06:14:27;100803.09;;;28.88;37.78
40788;BME280;26497;52.494;7.546;2023-07-13T06:16:54;100796.88;;;29.10;38.21
40788;BME280;26497;52.494;7.546;2023-07-13T06:19:21;100800.66;;;29.32;37.55
40788;BME280;26497;52.494;7.546;2023-07-13T06:21:48;100808.88;;;29.43;37.55
40788;BME280;26497;52.494;7.546;2023-07-13T06:24:15;100804.19;;;29.57;36.80
40788;BME280;26497;52.494;7.546;2023-07-13T06:26:42;100807.66;;;29.59;36.61
40788;BME280;26497;52.494;7.546;2023-07-13T06:29:11;100810.38;;;29.82;36.49
40788;BME280;26497;52.494;7.546;2023-07-13T06:31:38;100811.88;;;30.20;35.80
40788;BME280;26497;52.494;7.546;2023-07-13T06:34:05;100827.09;;;30.34;36.14
40788;BME280;26497;52.494;7.546;2023-07-13T06:36:32;100830.31;;;30.05;35.96
40788;BME280;26497;52.494;7.546;2023-07-13T06:38:59;100825.56;;;30.53;35.76
40788;BME280;26497;52.494;7.546;2023-07-13T06:41:26;100821.00;;;30.42;35.68
40788;BME280;26497;52.494;7.546;2023-07-13T06:43:53;100827.59;;;30.95;34.04
40788;BME280;26497;52.494;7.546;2023-07-13T06:46:22;100838.78;;;29.55;36.21
40788;BME280;26497;52.494;7.546;2023-07-13T06:48:50;100848.59;;;28.47;37.94
40788;BME280;26497;52.494;7.546;2023-07-13T06:51:17;100839.75;;;28.19;39.25
40788;BME280;26497;52.494;7.546;2023-07-13T06:53:45;100835.84;;;27.72;39.88
40788;BME280;26497;52.494;7.546;2023-07-13T06:56:12;100841.59;;;28.32;39.05
40788;BME280;26497;52.494;7.546;2023-07-13T06:58:40;100843.28;;;28.46;38.83
40788;BME280;26497;52.494;7.546;2023-07-13T07:01:07;100846.22;;;28.43;39.26
40788;BME280;26497;52.494;7.546;2023-07-13T07:03:35;100840.88;;;29.63;37.60
40788;BME280;26497;52.494;7.546;2023-07-13T07:06:13;100848.09;;;29.98;36.10
40788;BME280;26497;52.494;7.546;2023-07-13T07:08:41;100846.97;;;30.69;36.48
40788;BME280;26497;52.494;7.546;2023-07-13T07:11:12;100848.25;;;31.51;33.93
40788;BME280;26497;52.494;7.546;2023-07-13T07:13:39;100851.22;;;31.27;34.36
40788;BME280;26497;52.494;7.546;2023-07-13T07:16:13;100833.94;;;31.16;33.62
40788;BME280;26497;52.494;7.546;2023-07-13T07:18:41;100838.56;;;32.42;33.88
40788;BME280;26497;52.494;7.546;2023-07-13T07:21:08;100844.97;;;32.91;31.97
40788;BME280;26497;52.494;7.546;2023-07-13T07:23:36;100851.00;;;33.05;31.72
40788;BME280;26497;52.494;7.546;2023-07-13T07:26:03;100858.22;;;31.62;32.92
40788;BME280;26497;52.494;7.546;2023-07-13T07:28:30;100855.88;;;30.25;35.18
40788;BME280;26497;52.494;7.546;2023-07-13T07:30:58;100855.38;;;29.14;37.34
40788;BME280;26497;52.494;7.546;2023-07-13T07:33:25;100857.00;;;29.41;37.71
40788;BME280;26497;52.494;7.546;2023-07-13T07:35:54;100858.56;;;29.08;37.83
40788;BME280;26497;52.494;7.546;2023-07-13T07:38:21;100856.84;;;28.46;38.80
40788;BME280;26497;52.494;7.546;2023-07-13T07:40:48;100861.41;;;28.45;40.16
40788;BME280;26497;52.494;7.546;2023-07-13T07:43:15;100861.81;;;30.08;37.21
40788;BME280;26497;52.494;7.546;2023-07-13T07:45:44;100861.16;;;31.16;35.58
40788;BME280;26497;52.494;7.546;2023-07-13T07:48:12;100857.00;;;31.33;34.51
40788;BME280;26497;52.494;7.546;2023-07-13T07:50:39;100864.78;;;30.39;35.39
40788;BME280;26497;52.494;7.546;2023-07-13T07:53:07;100852.31;;;30.48;35.61
40788;BME280;26497;52.494;7.546;2023-07-13T07:55:36;100856.53;;;30.96;34.66
40788;BME280;26497;52.494;7.546;2023-07-13T07:58:04;100853.38;;;31.87;32.88
40788;BME280;26497;52.494;7.546;2023-07-13T08:00:31;100846.34;;;32.76;31.94
40788;BME280;26497;52.494;7.546;2023-07-13T08:02:58;100844.25;;;32.99;31.10
40788;BME280;26497;52.494;7.546;2023-07-13T08:05:25;100851.66;;;33.76;30.72
40788;BME280;26497;52.494;7.546;2023-07-13T08:07:53;100854.25;;;33.77;29.75
40788;BME280;26497;52.494;7.546;2023-07-13T08:10:21;100846.69;;;33.12;30.56
40788;BME280;26497;52.494;7.546;2023-07-13T08:12:48;100853.88;;;32.93;31.27
40788;BME280;26497;52.494;7.546;2023-07-13T08:15:17;100851.16;;;32.93;31.07
40788;BME280;26497;52.494;7.546;2023-07-13T08:17:47;100848.09;;;32.26;32.03
40788;BME280;26497;52.494;7.546;2023-07-13T08:20:14;100858.72;;;33.78;31.90
40788;BME280;26497;52.494;7.546;2023-07-13T08:22:41;100867.41;;;34.39;29.11
40788;BME280;26497;52.494;7.546;2023-07-13T08:25:08;100861.38;;;33.50;29.69
40788;BME280;26497;52.494;7.546;2023-07-13T08:27:37;100863.38;;;32.99;30.89
40788;BME280;26497;52.494;7.546;2023-07-13T08:30:05;100853.84;;;31.71;31.96
40788;BME280;26497;52.494;7.546;2023-07-13T08:32:35;100861.56;;;30.11;35.24
40788;BME280;26497;52.494;7.546;2023-07-13T08:35:04;100858.34;;;30.74;33.87
40788;BME280;26497;52.494;7.546;2023-07-13T08:37:31;100858.41;;;31.70;32.82
40788;BME280;26497;52.494;7.546;2023-07-13T08:39:58;100854.72;;;32.02;32.36
40788;BME280;26497;52.494;7.546;2023-07-13T08:42:33;100853.09;;;32.72;31.58
40788;BME280;26497;52.494;7.546;2023-07-13T08:45:21;100862.34;;;33.69;30.27
40788;BME280;26497;52.494;7.546;2023-07-13T08:47:53;100860.81;;;34.04;29.21
40788;BME280;26497;52.494;7.546;2023-07-13T08:50:25;100856.66;;;33.80;29.62
40788;BME280;26497;52.494;7.546;2023-07-13T08:52:55;100853.38;;;32.59;30.21
40788;BME280;26497;52.494;7.546;2023-07-13T08:55:28;100860.16;;;32.74;31.66
40788;BME280;26497;52.494;7.546;2023-07-13T08:58:02;100858.78;;;33.39;30.81
40788;BME280;26497;52.494;7.546;2023-07-13T09:00:41;100855.78;;;33.90;30.31
40788;BME280;26497;52.494;7.546;2023-07-13T09:03:18;100862.50;;;34.43;29.04
40788;BME280;26497;52.494;7.546;2023-07-13T09:05:53;100861.06;;;33.24;29.72
40788;BME280;26497;52.494;7.546;2023-07-13T09:08:43;100860.72;;;32.78;30.91
40788;BME280;26497;52.494;7.546;2023-07-13T09:11:27;100863.81;;;31.60;31.75
40788;BME280;26497;52.494;7.546;2023-07-13T09:14:03;100865.91;;;30.13;34.20
40788;BME280;26497;52.494;7.546;2023-07-13T09:16:34;100876.41;;;30.07;35.15
40788;BME280;26497;52.494;7.546;2023-07-13T09:19:06;100862.72;;;30.98;34.45
40788;BME280;26497;52.494;7.546;2023-07-13T09:21:38;100858.47;;;31.59;33.50
40788;BME280;26497;52.494;7.546;2023-07-13T09:24:28;100861.63;;;31.54;33.88
40788;BME280;26497;52.494;7.546;2023-07-13T09:26:56;100861.28;;;31.15;33.42
40788;BME280;26497;52.494;7.546;2023-07-13T09:29:30;100851.03;;;31.61;33.32
40788;BME280;26497;52.494;7.546;2023-07-13T09:32:06;100865.38;;;32.37;32.96
40788;BME280;26497;52.494;7.546;2023-07-13T09:34:36;100857.47;;;31.60;32.58
40788;BME280;26497;52.494;7.546;2023-07-13T09:37:03;100859.41;;;31.15;33.35
40788;BME280;26497;52.494;7.546;2023-07-13T09:39:35;100857.34;;;31.40;32.32
40788;BME280;26497;52.494;7.546;2023-07-13T09:42:12;100864.31;;;32.28;30.85
40788;BME280;26497;52.494;7.546;2023-07-13T09:44:53;100857.28;;;32.25;31.20
40788;BME280;26497;52.494;7.546;2023-07-13T09:47:24;100861.41;;;32.50;30.34
40788;BME280;26497;52.494;7.546;2023-07-13T09:49:58;100856.38;;;32.65;30.13
40788;BME280;26497;52.494;7.546;2023-07-13T09:52:27;100849.13;;;33.15;29.70
40788;BME280;26497;52.494;7.546;2023-07-13T09:54:55;100857.72;;;32.71;30.74
40788;BME280;26497;52.494;7.546;2023-07-13T09:57:27;100867.25;;;33.56;29.95
40788;BME280;26497;52.494;7.546;2023-07-13T10:00:00;100855.78;;;33.90;28.39
40788;BME280;26497;52.494;7.546;2023-07-13T10:02:31;100857.66;;;33.89;28.87
40788;BME280;26497;52.494;7.546;2023-07-13T10:05:01;100866.19;;;34.24;28.53
40788;BME280;26497;52.494;7.546;2023-07-13T10:07:30;100869.84;;;33.57;28.30
40788;BME280;26497;52.494;7.546;2023-07-13T10:10:00;100863.13;;;32.61;29.57
40788;BME280;26497;52.494;7.546;2023-07-13T10:12:30;100862.84;;;31.71;31.51
40788;BME280;26497;52.494;7.546;2023-07-13T10:15:02;100862.66;;;31.42;31.72
40788;BME280;26497;52.494;7.546;2023-07-13T10:17:33;100862.19;;;31.37;31.47
40788;BME280;26497;52.494;7.546;2023-07-13T10:20:04;100874.53;;;31.19;32.27
40788;BME280;26497;52.494;7.546;2023-07-13T10:22:42;100865.38;;;31.63;32.27
40788;BME280;26497;52.494;7.546;2023-07-13T10:25:18;100868.19;;;32.25;32.58
40788;BME280;26497;52.494;7.546;2023-07-13T10:27:46;100873.00;;;32.93;30.78
40788;BME280;26497;52.494;7.546;2023-07-13T10:30:19;100869.69;;;33.19;30.98
40788;BME280;26497;52.494;7.546;2023-07-13T10:32:50;100865.44;;;34.04;29.79
40788;BME280;26497;52.494;7.546;2023-07-13T10:35:20;100871.56;;;34.16;29.02
40788;BME280;26497;52.494;7.546;2023-07-13T10:37:51;100877.09;;;33.96;28.83
40788;BME280;26497;52.494;7.546;2023-07-13T10:40:23;100875.03;;;33.31;28.63
40788;BME280;26497;52.494;7.546;2023-07-13T10:42:55;100867.81;;;32.90;29.53
40788;BME280;26497;52.494;7.546;2023-07-13T10:45:25;100875.63;;;32.23;31.26
40788;BME280;26497;52.494;7.546;2023-07-13T10:47:56;100872.50;;;31.54;32.17
40788;BME280;26497;52.494;7.546;2023-07-13T10:50:25;100880.81;;;30.87;33.89
40788;BME280;26497;52.494;7.546;2023-07-13T10:52:55;100883.38;;;29.75;36.65
40788;BME280;26497;52.494;7.546;2023-07-13T10:55:40;100907.53;;;27.53;39.94
40788;BME280;26497;52.494;7.546;2023-07-13T10:58:22;100929.13;;;26.71;44.10
40788;BME280;26497;52.494;7.546;2023-07-13T11:00:56;100938.94;;;25.54;49.26
40788;BME280;26497;52.494;7.546;2023-07-13T11:03:27;100940.09;;;25.18;52.94
40788;BME280;26497;52.494;7.546;2023-07-13T11:06:09;100938.06;;;25.22;57.85
40788;BME280;26497;52.494;7.546;2023-07-13T11:08:50;100931.06;;;24.87;57.54
40788;BME280;26497;52.494;7.546;2023-07-13T11:11:35;100928.63;;;24.98;59.59
40788;BME280;26497;52.494;7.546;2023-07-13T11:14:13;100929.38;;;25.79;58.37
40788;BME280;26497;52.494;7.546;2023-07-13T11:16:52;100926.31;;;27.01;56.24
40788;BME280;26497;52.494;7.546;2023-07-13T11:19:51;100919.53;;;27.08;51.70
40788;BME280;26497;52.494;7.546;2023-07-13T11:22:25;100914.94;;;26.67;51.17
40788;BME280;26497;52.494;7.546;2023-07-13T11:25:26;100914.56;;;26.15;52.47
40788;BME280;26497;52.494;7.546;2023-07-13T11:28:18;100917.06;;;25.59;52.45
40788;BME280;26497;52.494;7.546;2023-07-13T11:30:49;100915.75;;;24.87;56.10
40788;BME280;26497;52.494;7.546;2023-07-13T11:33:45;100899.47;;;24.23;57.41
40788;BME280;26497;52.494;7.546;2023-07-13T11:36:18;100943.16;;;23.23;61.66
40788;BME280;26497;52.494;7.546;2023-07-13T11:38:57;100956.38;;;22.30;66.69
40788;BME280;26497;52.494;7.546;2023-07-13T11:41:30;100932.56;;;21.81;69.37
40788;BME280;26497;52.494;7.546;2023-07-13T11:44:06;100947.75;;;21.60;71.35
40788;BME280;26497;52.494;7.546;2023-07-13T11:46:33;100934.34;;;21.38;71.67
40788;BME280;26497;52.494;7.546;2023-07-13T11:49:00;100959.19;;;21.20;72.93
40788;BME280;26497;52.494;7.546;2023-07-13T11:51:31;101020.44;;;20.85;74.41
40788;BME280;26497;52.494;7.546;2023-07-13T11:54:04;101059.84;;;20.56;75.32
40788;BME280;26497;52.494;7.546;2023-07-13T11:56:32;101066.09;;;20.31;75.82
40788;BME280;26497;52.494;7.546;2023-07-13T11:59:07;101039.22;;;20.35;77.16
40788;BME280;26497;52.494;7.546;2023-07-13T12:01:38;101020.97;;;20.46;76.95
40788;BME280;26497;52.494;7.546;2023-07-13T12:04:20;101007.19;;;20.55;77.51
40788;BME280;26497;52.494;7.546;2023-07-13T12:06:57;100991.13;;;20.81;77.52
40788;BME280;26497;52.494;7.546;2023-07-13T12:09:27;100982.59;;;21.17;78.16
40788;BME280;26497;52.494;7.546;2023-07-13T12:11:57;100978.88;;;21.86;80.83
40788;BME280;26497;52.494;7.546;2023-07-13T12:14:25;100981.25;;;23.13;83.57
40788;BME280;26497;52.494;7.546;2023-07-13T12:16:54;100980.78;;;24.14;83.04
40788;BME280;26497;52.494;7.546;2023-07-13T12:19:25;100977.94;;;25.65;86.25
40788;BME280;26497;52.494;7.546;2023-07-13T12:21:57;100983.63;;;27.21;82.89
40788;BME280;26497;52.494;7.546;2023-07-13T12:24:26;100978.97;;;28.83;82.81
40788;BME280;26497;52.494;7.546;2023-07-13T12:26:59;100982.19;;;29.25;69.46
40788;BME280;26497;52.494;7.546;2023-07-13T12:29:27;100979.91;;;29.56;72.96
40788;BME280;26497;52.494;7.546;2023-07-13T12:31:54;100966.31;;;30.62;72.74
40788;BME280;26497;52.494;7.546;2023-07-13T12:34:23;100958.13;;;31.40;68.69
40788;BME280;26497;52.494;7.546;2023-07-13T12:36:55;100957.13;;;32.16;65.34
40788;BME280;26497;52.494;7.546;2023-07-13T12:39:25;100958.00;;;32.79;63.77
40788;BME280;26497;52.494;7.546;2023-07-13T12:41:54;100962.66;;;32.26;60.13
40788;BME280;26497;52.494;7.546;2023-07-13T12:44:41;100965.34;;;31.95;61.04
40788;BME280;26497;52.494;7.546;2023-07-13T12:47:13;100962.13;;;31.69;57.58
40788;BME280;26497;52.494;7.546;2023-07-13T12:49:47;100980.78;;;30.97;54.99
40788;BME280;26497;52.494;7.546;2023-07-13T12:52:21;100981.59;;;29.82;55.93
40788;BME280;26497;52.494;7.546;2023-07-13T12:54:55;100982.53;;;28.96;56.57
40788;BME280;26497;52.494;7.546;2023-07-13T12:57:23;100983.53;;;28.18;58.35
40788;BME280;26497;52.494;7.546;2023-07-13T12:59:53;100988.03;;;27.51;58.58
40788;BME280;26497;52.494;7.546;2023-07-13T13:02:29;100996.00;;;26.83;57.08
40788;BME280;26497;52.494;7.546;2023-07-13T13:04:57;100998.69;;;26.09;61.01
40788;BME280;26497;52.494;7.546;2023-07-13T13:07:26;101007.13;;;25.58;62.73